Terminal Aerodrome Forecast
Issued by NWS

Current Version | Previous Version | Graphics & Text | Print | Product List | Glossary On
Versions: 1 2 3 4 5 6 7 8 9 10 11 12 13 14 15 16 17 18 19 20 21 22
000
FTUS41 KILN 290539
TAFLCK
TAF
KLCK 290539Z 2906/3006 15006KT P6SM VCTS BKN045CB
     FM290900 17007KT P6SM +SHRA VCTS OVC050CB
     FM291200 21011G18KT 6SM +SHRA VCTS OVC025CB
     FM291600 19014G20KT P6SM VCSH OVC025
     FM291800 27008KT P6SM VCSH OVC050
     FM292000 34007KT P6SM VCSH OVC090
     FM292100 10009KT P6SM VCSH BKN130=

USA.gov is the U.S. government's official web portal to all federal, state and local government web resources and services.